Time;durP1;ratioP1;P1;durP2;ratioP2;P2;SDS_P1;SDS_P2;PMS_P1;PMS_P2;Temp;Humidity;BMP_temperature;BMP_pressure;BME280_temperature;BME280_humidity;BME280_pressure;Samples;Min_cycle;Max_cycle;Signal;HPM_P1;HPM_P2
2023/10/23 00:00:56;;;;;;;;;13.00;12.60;;;;;14.69;100.00;98570.63;6209568;28;97037;-70
2023/10/23 00:03:59;;;;;;;;;13.00;13.00;;;;;14.73;100.00;98579.91;6209863;28;96368;-70
2023/10/23 00:07:03;;;;;;;;;15.40;14.40;;;;;14.76;100.00;98592.16;6192905;28;96724;-71
2023/10/23 00:10:08;;;;;;;;;12.40;11.40;;;;;14.73;100.00;98598.91;6212768;28;96931;-70
2023/10/23 00:13:13;;;;;;;;;13.00;10.00;;;;;14.70;100.00;98585.84;6212886;28;96356;-70
2023/10/23 00:16:16;;;;;;;;;11.80;10.80;;;;;14.65;100.00;98596.66;6210363;28;97621;-70
2023/10/23 00:19:19;;;;;;;;;14.40;13.00;;;;;14.56;100.00;98590.84;6212704;28;97005;-71
2023/10/23 00:22:22;;;;;;;;;11.80;11.00;;;;;14.56;100.00;98603.59;6225042;28;97753;-70
2023/10/23 00:25:25;;;;;;;;;11.00;10.00;;;;;14.59;100.00;98592.22;6227216;28;96338;-71
2023/10/23 00:28:30;;;;;;;;;11.00;10.00;;;;;14.54;100.00;98598.44;6209828;28;97673;-70
2023/10/23 00:31:33;;;;;;;;;10.00;9.00;;;;;14.48;100.00;98598.59;6226389;28;96392;-71
2023/10/23 00:34:36;;;;;;;;;13.60;12.60;;;;;14.38;100.00;98603.91;6227109;28;97713;-64
2023/10/23 00:37:40;;;;;;;;;13.60;11.60;;;;;14.30;100.00;98605.16;6209646;28;96705;-65
2023/10/23 00:40:43;;;;;;;;;12.00;11.00;;;;;14.30;100.00;98603.28;6193825;28;99416;-64
2023/10/23 00:43:47;;;;;;;;;11.00;10.00;;;;;14.30;100.00;98602.44;6210912;28;96305;-65
2023/10/23 00:46:50;;;;;;;;;11.00;11.00;;;;;14.36;100.00;98611.47;6221094;28;96668;-64
2023/10/23 00:49:56;;;;;;;;;15.00;13.00;;;;;14.36;100.00;98615.03;6210596;28;96930;-64
2023/10/23 00:52:59;;;;;;;;;7.40;7.00;;;;;14.35;100.00;98616.06;6212348;28;99185;-64
2023/10/23 00:56:04;;;;;;;;;11.25;10.25;;;;;14.40;100.00;98615.34;6210924;28;97868;-64
2023/10/23 00:59:10;;;;;;;;;11.00;11.00;;;;;14.39;100.00;98629.97;6211879;28;96392;-64
2023/10/23 01:02:15;;;;;;;;;9.00;8.00;;;;;14.38;100.00;98628.31;6209172;28;97190;-71
2023/10/23 01:05:18;;;;;;;;;9.00;8.00;;;;;14.38;100.00;98636.47;6200576;22;96940;-60
2023/10/23 01:08:22;;;;;;;;;9.00;8.00;;;;;14.41;100.00;98628.66;6171833;28;96390;-59
2023/10/23 01:11:25;;;;;;;;;11.20;10.20;;;;;14.42;100.00;98627.56;6181149;28;96974;-59
2023/10/23 01:14:29;;;;;;;;;9.40;8.00;;;;;14.47;100.00;98633.03;6184131;28;96415;-59
2023/10/23 01:17:32;;;;;;;;;10.00;10.00;;;;;14.50;100.00;98629.84;6191251;28;97203;-60
2023/10/23 01:20:35;;;;;;;;;11.20;10.00;;;;;14.55;100.00;98634.50;6188855;28;96442;-61
2023/10/23 01:23:43;;;;;;;;;9.50;8.00;;;;;14.60;100.00;98631.84;6165148;28;96692;-63
2023/10/23 01:26:47;;;;;;;;;7.00;7.00;;;;;14.62;100.00;98635.13;6185052;28;96416;-61
2023/10/23 01:29:50;;;;;;;;;8.00;8.00;;;;;14.64;100.00;98622.97;6182448;28;96357;-60
2023/10/23 01:32:54;;;;;;;;;8.00;7.00;;;;;14.67;100.00;98627.88;6176489;28;96848;-60
2023/10/23 01:35:57;;;;;;;;;9.00;8.00;;;;;14.70;100.00;98629.25;6185053;28;97749;-60
2023/10/23 01:39:01;;;;;;;;;5.40;5.40;;;;;14.76;100.00;98627.44;6168260;28;96735;-60
2023/10/23 01:42:06;;;;;;;;;8.40;7.40;;;;;14.74;100.00;98625.78;6165884;28;96495;-60
2023/10/23 01:45:10;;;;;;;;;7.00;6.00;;;;;14.81;100.00;98631.00;6175280;28;96489;-60
2023/10/23 01:48:13;;;;;;;;;5.00;5.00;;;;;14.80;100.00;98623.94;6190425;28;96491;-59
2023/10/23 01:51:16;;;;;;;;;6.00;5.80;;;;;14.85;100.00;98620.47;6193476;28;96366;-60
2023/10/23 01:54:19;;;;;;;;;7.00;6.80;;;;;14.89;100.00;98625.13;6176223;28;99075;-59
2023/10/23 01:57:24;;;;;;;;;7.00;7.00;;;;;14.91;100.00;98625.69;6193908;28;96287;-60
2023/10/23 02:00:27;;;;;;;;;6.60;6.60;;;;;14.93;100.00;98642.53;6192298;28;96822;-59
2023/10/23 02:03:31;;;;;;;;;8.60;8.40;;;;;14.95;100.00;98637.69;6193700;28;96676;-59
2023/10/23 02:06:34;;;;;;;;;6.75;6.00;;;;;14.98;100.00;98637.16;6191857;28;96317;-60
2023/10/23 02:09:37;;;;;;;;;6.75;6.75;;;;;14.95;100.00;98640.41;6193537;28;96575;-60
2023/10/23 02:12:44;;;;;;;;;6.20;6.00;;;;;15.04;100.00;98635.31;6168851;28;96719;-59
2023/10/23 02:15:47;;;;;;;;;7.00;6.40;;;;;15.04;100.00;98641.56;6151831;28;96888;-60
2023/10/23 02:18:51;;;;;;;;;6.80;6.80;;;;;15.05;100.00;98637.75;6181836;28;98432;-59
2023/10/23 02:21:54;;;;;;;;;5.00;4.00;;;;;15.06;100.00;98641.28;6175052;28;96692;-59
2023/10/23 02:24:57;;;;;;;;;5.00;4.75;;;;;15.06;100.00;98646.72;6192639;28;97615;-60
2023/10/23 02:28:03;;;;;;;;;6.00;6.00;;;;;15.05;100.00;98645.91;6189953;28;97229;-59
2023/10/23 02:31:06;;;;;;;;;7.00;6.25;;;;;15.04;100.00;98652.44;6191832;28;96854;-60
2023/10/23 02:34:09;;;;;;;;;6.00;6.00;;;;;15.04;100.00;98647.00;6193293;28;96142;-60
2023/10/23 02:37:12;;;;;;;;;7.50;7.00;;;;;15.05;100.00;98645.91;6193574;28;96501;-59
2023/10/23 02:40:16;;;;;;;;;6.00;5.40;;;;;15.06;100.00;98646.72;6193141;28;96438;-59
2023/10/23 02:43:21;;;;;;;;;7.00;6.20;;;;;15.02;100.00;98642.88;6192384;28;97235;-59
2023/10/23 02:46:26;;;;;;;;;7.75;7.00;;;;;14.99;100.00;98640.69;6180238;28;96327;-59
2023/10/23 02:49:29;;;;;;;;;7.60;6.60;;;;;14.95;100.00;98637.69;6168630;28;96432;-60
2023/10/23 02:52:32;;;;;;;;;8.60;8.00;;;;;14.95;100.00;98643.13;6192355;28;96340;-59
2023/10/23 02:55:35;;;;;;;;;8.00;7.60;;;;;14.93;100.00;98639.81;6192313;28;96888;-60
2023/10/23 02:58:40;;;;;;;;;9.40;9.40;;;;;14.91;100.00;98650.09;6191429;28;96402;-60
2023/10/23 03:01:43;;;;;;;;;10.00;10.00;;;;;14.85;100.00;98647.59;6184875;28;97612;-59
2023/10/23 03:04:46;;;;;;;;;8.60;8.00;;;;;14.77;100.00;98643.44;6187342;28;96456;-60
2023/10/23 03:07:50;;;;;;;;;8.40;8.00;;;;;14.70;100.00;98651.78;6179749;28;96573;-60
2023/10/23 03:10:53;;;;;;;;;11.00;9.25;;;;;14.59;100.00;98657.34;6175948;28;96624;-60
2023/10/23 03:13:58;;;;;;;;;7.00;6.60;;;;;14.55;100.00;98656.22;6186845;28;96655;-60
2023/10/23 03:17:02;;;;;;;;;9.00;8.00;;;;;14.45;100.00;98651.47;6192209;28;96431;-60
2023/10/23 03:20:06;;;;;;;;;5.80;5.80;;;;;14.43;100.00;98653.63;6184220;28;96440;-60
2023/10/23 03:23:09;;;;;;;;;9.00;9.00;;;;;14.35;100.00;98661.34;6189174;28;96518;-62
2023/10/23 03:26:12;;;;;;;;;8.00;6.40;;;;;14.29;100.00;98655.03;6193094;28;97795;-63
2023/10/23 03:29:17;;;;;;;;;6.50;6.25;;;;;14.25;100.00;98659.31;6185095;28;96309;-62
2023/10/23 03:32:20;;;;;;;;;7.75;6.75;;;;;14.23;100.00;98662.28;6191635;28;97578;-62
2023/10/23 03:35:23;;;;;;;;;10.60;9.60;;;;;14.21;100.00;98652.75;6194084;28;96330;-63
2023/10/23 03:38:28;;;;;;;;;9.20;8.20;;;;;14.16;100.00;98661.66;6194965;28;96773;-63
2023/10/23 03:41:31;;;;;;;;;8.80;8.40;;;;;14.16;100.00;98664.38;6181651;28;96887;-63
2023/10/23 03:44:35;;;;;;;;;7.80;7.80;;;;;14.21;100.00;98667.16;6203435;28;97254;-62
2023/10/23 03:47:38;;;;;;;;;8.00;7.00;;;;;14.19;100.00;98661.13;6183353;28;97422;-63
2023/10/23 03:50:42;;;;;;;;;7.25;7.25;;;;;14.15;100.00;98660.00;6186270;28;96288;-63
2023/10/23 03:53:45;;;;;;;;;6.25;6.25;;;;;14.12;100.00;98662.41;6181739;28;96602;-63
2023/10/23 03:56:48;;;;;;;;;8.40;8.00;;;;;14.11;100.00;98666.19;6184594;28;96341;-63
2023/10/23 03:59:52;;;;;;;;;9.00;7.00;;;;;14.11;100.00;98667.00;6181771;28;96350;-63
2023/10/23 04:02:55;;;;;;;;;10.00;10.00;;;;;14.11;100.00;98667.00;6187048;28;96464;-63
2023/10/23 04:05:58;;;;;;;;;7.00;7.00;;;;;14.13;100.00;98655.88;6200624;28;98659;-63
2023/10/23 04:09:02;;;;;;;;;9.00;9.00;;;;;14.14;100.00;98652.94;6195718;28;96442;-63
2023/10/23 04:12:05;;;;;;;;;8.00;8.00;;;;;14.11;100.00;98649.91;6187521;28;96669;-63
2023/10/23 04:15:10;;;;;;;;;6.20;6.00;;;;;14.08;100.00;98650.38;6188717;28;96249;-63
2023/10/23 04:18:13;;;;;;;;;9.00;8.00;;;;;14.03;100.00;98653.84;6192555;28;96233;-63
2023/10/23 04:21:18;;;;;;;;;15.50;14.50;;;;;13.98;100.00;98663.81;6170147;28;96720;-63
2023/10/23 04:24:21;;;;;;;;;10.00;9.00;;;;;13.96;100.00;98661.34;6180690;28;96705;-63
2023/10/23 04:27:24;;;;;;;;;8.00;8.00;;;;;13.96;100.00;98663.25;6175529;28;96578;-63
2023/10/23 04:30:28;;;;;;;;;9.00;8.25;;;;;13.96;100.00;98663.25;6173107;28;96956;-63
2023/10/23 04:33:31;;;;;;;;;15.00;12.40;;;;;13.92;100.00;98651.25;6182079;28;96949;-63
2023/10/23 04:36:35;;;;;;;;;9.00;9.00;;;;;14.03;100.00;98666.59;6174467;28;97965;-60
2023/10/23 04:39:38;;;;;;;;;8.00;7.00;;;;;14.08;100.00;98672.09;6157052;28;96761;-61
2023/10/23 04:42:41;;;;;;;;;8.00;8.00;;;;;14.08;100.00;98669.38;6162667;28;96329;-60
2023/10/23 04:45:46;;;;;;;;;9.00;9.00;;;;;14.12;100.00;98681.38;6168138;28;96623;-60
2023/10/23 04:48:49;;;;;;;;;8.40;8.40;;;;;14.15;100.00;98691.72;6159353;28;96558;-60
2023/10/23 04:51:53;;;;;;;;;6.00;5.20;;;;;14.17;100.00;98684.16;6144528;28;99552;-60
2023/10/23 04:54:56;;;;;;;;;8.40;7.00;;;;;14.16;100.00;98690.66;6163281;28;96693;-60
2023/10/23 04:58:00;;;;;;;;;8.00;7.00;;;;;14.19;100.00;98695.56;6160976;28;97042;-61
2023/10/23 05:01:04;;;;;;;;;7.00;7.00;;;;;14.24;100.00;98692.94;6171390;28;96598;-61
2023/10/23 05:04:08;;;;;;;;;7.00;6.25;;;;;14.28;100.00;98710.31;6171157;28;96703;-60
2023/10/23 05:07:11;;;;;;;;;6.50;6.00;;;;;14.30;100.00;98719.03;6155397;28;98398;-60
2023/10/23 05:10:14;;;;;;;;;5.60;5.00;;;;;14.31;100.00;98715.28;6163383;28;97211;-62
2023/10/23 05:13:17;;;;;;;;;5.50;4.50;;;;;14.35;100.00;98727.25;6133026;28;98558;-61
2023/10/23 05:16:22;;;;;;;;;4.40;4.40;;;;;14.36;100.00;98722.66;6171883;28;96858;-60
2023/10/23 05:19:25;;;;;;;;;8.40;6.00;;;;;14.40;100.00;98731.97;6169346;28;97019;-60
2023/10/23 05:22:28;;;;;;;;;7.00;7.00;;;;;14.43;100.00;98726.84;6146440;28;97796;-61
2023/10/23 05:25:32;;;;;;;;;7.00;6.00;;;;;14.44;100.00;98733.91;6168780;28;96987;-62
2023/10/23 05:28:35;;;;;;;;;4.25;4.25;;;;;14.46;100.00;98741.81;6162686;28;96718;-60
2023/10/23 05:31:39;;;;;;;;;5.75;5.00;;;;;14.42;100.00;98737.94;6178267;28;96754;-60
2023/10/23 05:34:44;;;;;;;;;6.00;5.00;;;;;14.48;100.00;98754.03;6175009;28;96995;-60
2023/10/23 05:37:48;;;;;;;;;4.00;4.00;;;;;14.51;100.00;98755.44;6160576;28;96620;-60
2023/10/23 05:40:57;;;;;;;;;4.40;4.00;;;;;14.52;100.00;98749.75;6174009;28;98442;-60
2023/10/23 05:44:01;;;;;;;;;4.60;4.60;;;;;14.58;100.00;98759.63;6165308;28;96529;-60
2023/10/23 05:47:06;;;;;;;;;4.40;4.40;;;;;14.59;100.00;98763.97;6165539;28;96276;-60
2023/10/23 05:50:09;;;;;;;;;6.60;6.00;;;;;14.64;100.00;98771.34;6163550;28;98221;-60
2023/10/23 05:53:12;;;;;;;;;3.75;3.75;;;;;14.67;100.00;98763.53;6165232;28;96895;-60
2023/10/23 05:56:16;;;;;;;;;3.20;3.20;;;;;14.72;100.00;98769.03;6165443;28;96192;-60
2023/10/23 05:59:19;;;;;;;;;6.20;6.20;;;;;14.80;100.00;98769.69;6164778;28;96554;-61
2023/10/23 06:02:23;;;;;;;;;6.00;6.00;;;;;14.91;100.00;98774.13;6167270;28;97008;-60
2023/10/23 06:05:26;;;;;;;;;4.00;4.00;;;;;15.02;100.00;98775.91;6150966;28;97885;-61
2023/10/23 06:08:29;;;;;;;;;6.00;6.00;;;;;15.17;100.00;98785.06;6169277;28;96884;-60
2023/10/23 06:11:32;;;;;;;;;5.00;4.00;;;;;15.52;100.00;98783.84;6185099;28;96945;-60
2023/10/23 06:14:35;;;;;;;;;7.00;7.00;;;;;16.37;100.00;98789.22;6170218;28;96418;-59
2023/10/23 06:17:40;;;;;;;;;5.00;5.00;;;;;17.21;100.00;98797.31;6167861;28;96682;-59
2023/10/23 06:20:43;;;;;;;;;6.00;4.60;;;;;17.69;100.00;98807.03;6187004;28;96410;-60
2023/10/23 06:23:46;;;;;;;;;5.00;5.00;;;;;17.68;100.00;98810.88;6193844;28;96797;-60
2023/10/23 06:26:49;;;;;;;;;6.00;6.00;;;;;17.47;100.00;98800.97;6192906;28;96988;-60
2023/10/23 06:29:52;;;;;;;;;4.00;4.00;;;;;17.20;100.00;98803.84;6183770;28;96248;-61
2023/10/23 06:32:57;;;;;;;;;4.00;4.00;;;;;16.97;100.00;98804.31;6151667;28;98588;-61
2023/10/23 06:36:01;;;;;;;;;3.00;3.00;;;;;16.81;100.00;98803.41;6127010;28;98362;-60
2023/10/23 06:39:04;;;;;;;;;3.00;3.00;;;;;16.72;100.00;98802.25;6147621;28;96534;-60
2023/10/23 06:42:07;;;;;;;;;5.40;5.40;;;;;16.72;100.00;98799.53;6168881;28;96285;-60
2023/10/23 06:45:11;;;;;;;;;4.60;4.00;;;;;16.89;100.00;98805.63;6167832;28;96691;-61
2023/10/23 06:48:16;;;;;;;;;5.00;5.00;;;;;17.19;100.00;98794.06;6179630;28;99373;-59
2023/10/23 06:51:19;;;;;;;;;7.00;6.00;;;;;17.38;100.00;98796.31;6177303;28;96274;-60
2023/10/23 06:54:23;;;;;;;;;5.00;5.00;;;;;17.64;100.00;98801.56;6175994;28;96402;-62
2023/10/23 06:57:26;;;;;;;;;7.00;6.50;;;;;17.73;100.00;98810.06;6216434;28;96537;-63
2023/10/23 07:00:30;;;;;;;;;5.00;4.40;;;;;17.77;100.00;98805.69;6201765;28;96318;-63
2023/10/23 07:03:34;;;;;;;;;5.50;5.50;;;;;17.75;100.00;98807.88;6189905;28;96614;-63
2023/10/23 07:06:37;;;;;;;;;4.00;4.00;;;;;17.78;100.00;98817.44;6191249;28;96588;-63
2023/10/23 07:09:40;;;;;;;;;5.00;5.00;;;;;17.83;100.00;98818.25;6190158;28;96244;-63
2023/10/23 07:12:44;;;;;;;;;5.00;4.40;;;;;18.26;100.00;98816.09;6206483;28;96471;-63
2023/10/23 07:15:47;;;;;;;;;5.60;5.60;;;;;19.29;100.00;98825.47;6191722;28;96855;-64
2023/10/23 07:18:51;;;;;;;;;5.50;5.50;;;;;20.34;100.00;98822.41;6187679;28;96488;-64
2023/10/23 07:21:54;;;;;;;;;4.00;4.00;;;;;21.35;100.00;98831.53;6178146;28;96724;-64
2023/10/23 07:24:57;;;;;;;;;6.00;6.00;;;;;22.00;100.00;98830.66;6177185;28;96531;-64
2023/10/23 07:28:00;;;;;;;;;7.00;6.00;;;;;22.75;100.00;98826.97;6177486;28;96502;-64
2023/10/23 07:31:04;;;;;;;;;6.00;6.00;;;;;22.52;100.00;98827.91;6178880;28;96886;-64
2023/10/23 07:34:09;;;;;;;;;6.00;5.00;;;;;22.60;100.00;98817.03;6176690;28;96571;-64
2023/10/23 07:37:17;;;;;;;;;5.40;5.40;;;;;22.20;100.00;98820.47;6176380;28;98410;-64
2023/10/23 07:40:21;;;;;;;;;5.00;5.00;;;;;22.03;100.00;98827.34;6189088;28;96565;-64
2023/10/23 07:43:24;;;;;;;;;5.00;4.00;;;;;21.58;100.00;98845.22;6174877;28;97031;-64
2023/10/23 07:46:27;;;;;;;;;7.60;6.60;;;;;21.20;100.00;98838.03;6178379;28;96336;-64
2023/10/23 07:49:32;;;;;;;;;7.00;6.60;;;;;20.93;100.00;98838.56;6177318;28;96287;-64
2023/10/23 07:52:35;;;;;;;;;6.60;5.60;;;;;21.06;100.00;98831.56;6179813;28;96447;-63
2023/10/23 07:55:38;;;;;;;;;4.60;4.00;;;;;21.88;100.00;98843.16;6179266;28;96373;-64
2023/10/23 07:58:41;;;;;;;;;6.00;6.00;;;;;23.41;100.00;98844.97;6175978;28;96749;-64
2023/10/23 08:01:45;;;;;;;;;6.60;6.00;;;;;25.20;100.00;98827.44;6178695;28;96985;-64
2023/10/23 08:04:49;;;;;;;;;5.00;4.50;;;;;26.67;100.00;98837.56;6184597;28;96649;-61
2023/10/23 08:07:53;;;;;;;;;6.00;6.00;;;;;27.63;100.00;98845.22;6184981;28;96522;-62
2023/10/23 08:10:56;;;;;;;;;7.00;6.00;;;;;28.33;100.00;98855.50;6180140;28;96933;-62
2023/10/23 08:14:00;;;;;;;;;6.50;6.00;;;;;29.37;100.00;98843.34;6181091;28;97078;-62
2023/10/23 08:17:03;;;;;;;;;8.00;7.20;;;;;30.19;94.84;98846.75;6180241;28;97037;-62
2023/10/23 08:20:09;;;;;;;;;6.00;6.00;;;;;29.81;89.69;98845.16;6180095;28;96296;-61
2023/10/23 08:23:12;;;;;;;;;8.00;7.00;;;;;29.14;96.65;98840.97;6177728;28;96418;-62
2023/10/23 08:26:15;;;;;;;;;5.00;5.00;;;;;27.96;100.00;98842.53;6186598;28;96574;-62
2023/10/23 08:29:19;;;;;;;;;7.00;6.00;;;;;26.88;100.00;98834.94;6194303;28;96368;-61
2023/10/23 08:32:22;;;;;;;;;6.00;5.50;;;;;26.70;100.00;98834.13;6186886;28;96640;-61
2023/10/23 08:35:41;;;;;;;;;6.00;6.00;;;;;27.07;100.00;98836.16;6182701;28;98597;-61
2023/10/23 08:38:44;;;;;;;;;4.50;4.50;;;;;26.76;100.00;98827.28;6185933;28;96395;-62
2023/10/23 08:41:48;;;;;;;;;7.00;6.50;;;;;26.55;100.00;98826.34;6187893;28;96485;-62
2023/10/23 08:44:52;;;;;;;;;5.00;4.00;;;;;26.46;100.00;98825.53;6188873;28;96962;-62
2023/10/23 08:47:57;;;;;;;;;6.00;5.40;;;;;26.50;100.00;98819.03;6185953;28;96987;-61
2023/10/23 08:51:02;;;;;;;;;6.00;5.00;;;;;26.18;100.00;98822.28;6191027;28;96377;-61
2023/10/23 08:54:08;;;;;;;;;6.00;6.00;;;;;25.48;100.00;98837.09;6190381;28;97316;-61
2023/10/23 08:57:15;;;;;;;;;3.40;3.40;;;;;24.93;100.00;98836.72;6189951;28;96326;-62
2023/10/23 09:00:18;;;;;;;;;5.00;5.00;;;;;24.71;100.00;98840.31;6190436;28;96420;-61
2023/10/23 09:03:26;;;;;;;;;6.00;6.00;;;;;24.56;100.00;98849.78;6190198;28;96950;-62
2023/10/23 09:06:52;;;;;;;;;5.20;5.20;;;;;25.70;100.00;98848.09;6191633;28;96332;-61
2023/10/23 09:10:00;;;;;;;;;4.00;4.00;;;;;26.40;100.00;98854.50;6193061;28;96768;-61
2023/10/23 09:13:04;;;;;;;;;5.00;5.00;;;;;28.79;99.96;98873.84;6185805;28;96924;-62
2023/10/23 09:16:08;;;;;;;;;6.00;5.50;;;;;30.50;92.90;98877.47;6174733;28;96456;-65
2023/10/23 09:19:24;;;;;;;;;5.00;4.60;;;;;32.05;79.47;98879.97;6166555;28;96621;-66
2023/10/23 09:22:30;;;;;;;;;5.00;4.00;;;;;32.06;68.05;98878.81;6164661;28;96816;-66
2023/10/23 09:25:33;;;;;;;;;3.00;3.00;;;;;32.23;67.71;98882.00;6165530;28;96718;-66
2023/10/23 09:28:36;;;;;;;;;3.00;2.60;;;;;32.24;61.42;98878.06;6167185;28;96331;-66
2023/10/23 09:31:40;;;;;;;;;3.00;3.00;;;;;32.01;60.50;98873.50;6165846;28;96488;-66
2023/10/23 09:34:44;;;;;;;;;3.00;3.00;;;;;31.57;62.71;98872.88;6166232;28;96769;-66
2023/10/23 09:37:49;;;;;;;;;3.00;3.00;;;;;31.12;60.09;98871.31;6170354;28;96413;-65
2023/10/23 09:40:57;;;;;;;;;3.00;3.00;;;;;30.98;59.42;98874.47;6174126;28;96273;-66
2023/10/23 09:44:03;;;;;;;;;3.00;3.00;;;;;32.10;57.15;98866.59;6171901;28;98546;-66
2023/10/23 09:47:08;;;;;;;;;3.00;2.00;;;;;32.96;49.14;98864.38;6172175;28;96267;-66
2023/10/23 09:50:12;;;;;;;;;3.00;3.00;;;;;34.10;45.89;98860.72;6170283;28;97799;-66
2023/10/23 09:53:18;;;;;;;;;2.25;2.25;;;;;35.51;39.20;98862.38;6186971;28;96595;-66
2023/10/23 09:56:22;;;;;;;;;1.00;1.00;;;;;36.86;38.80;98849.94;6170537;28;96299;-67
2023/10/23 09:59:27;;;;;;;;;2.00;2.00;;;;;37.91;33.77;98847.63;6168391;28;97313;-66
2023/10/23 10:02:35;;;;;;;;;2.00;2.00;;;;;38.79;31.35;98838.09;6169131;28;96424;-67
2023/10/23 10:05:45;;;;;;;;;3.00;2.00;;;;;39.11;28.25;98831.47;6168408;28;96171;-66
2023/10/23 10:08:54;;;;;;;;;1.50;1.50;;;;;39.45;28.14;98814.69;6168306;28;96349;-67
2023/10/23 10:11:59;;;;;;;;;1.80;1.80;;;;;39.72;27.20;98810.81;6169799;28;96383;-66
2023/10/23 10:15:04;;;;;;;;;4.00;3.50;;;;;39.70;27.76;98804.78;6152947;28;98575;-66
2023/10/23 10:18:07;;;;;;;;;3.00;3.00;;;;;40.00;27.82;98803.28;6169063;28;96530;-66
2023/10/23 10:21:13;;;;;;;;;3.00;3.00;;;;;40.16;26.92;98803.50;6167754;28;97190;-66
2023/10/23 10:24:20;;;;;;;;;3.00;3.00;;;;;40.41;26.62;98804.03;6166220;28;96669;-66
2023/10/23 10:27:24;;;;;;;;;3.00;3.00;;;;;40.08;26.29;98810.44;6166133;28;96536;-69
2023/10/23 10:30:45;;;;;;;;;4.00;4.00;;;;;40.16;27.60;98803.50;6172082;28;96770;-68
2023/10/23 10:33:51;;;;;;;;;4.00;3.00;;;;;40.13;26.72;98796.66;6172665;28;97572;-68
2023/10/23 10:37:15;;;;;;;;;4.00;4.00;;;;;39.65;25.65;98787.50;6153793;28;99172;-69
2023/10/23 10:40:57;;;;;;;;;1.80;1.00;;;;;39.14;26.27;98774.25;6173977;28;96978;-69
2023/10/23 10:44:00;;;;;;;;;2.00;2.00;;;;;38.93;27.11;98789.31;6165627;28;96876;-69
2023/10/23 10:47:12;;;;;;;;;2.00;2.00;;;;;39.22;27.32;98776.59;6164349;28;96495;-69
2023/10/23 10:50:31;;;;;;;;;3.40;3.40;;;;;39.45;26.11;98778.03;6165233;28;96898;-69
2023/10/23 10:53:39;;;;;;;;;3.00;2.00;;;;;39.71;26.39;98774.53;6165980;28;97508;-69
2023/10/23 10:56:45;;;;;;;;;2.60;2.60;;;;;39.77;25.20;98775.72;6165724;28;96827;-69
2023/10/23 10:59:54;;;;;;;;;4.00;3.40;;;;;39.86;25.70;98770.38;6164742;28;97010;-69
2023/10/23 11:02:57;;;;;;;;;3.25;3.00;;;;;40.32;25.10;98769.81;6156387;28;96566;-69
2023/10/23 11:06:01;;;;;;;;;3.50;3.50;;;;;40.10;25.60;98771.31;6151290;28;97347;-69
2023/10/23 11:09:06;;;;;;;;;5.40;5.40;;;;;39.59;25.42;98766.59;6165113;28;96309;-69
2023/10/23 11:12:11;;;;;;;;;4.00;4.00;;;;;39.45;25.57;98763.91;6162188;28;96287;-69
2023/10/23 11:15:15;;;;;;;;;2.20;2.20;;;;;39.69;25.19;98769.31;6162606;28;96390;-69
2023/10/23 11:18:18;;;;;;;;;3.00;3.00;;;;;39.80;25.68;98763.59;6165253;28;96385;-69
2023/10/23 11:21:23;;;;;;;;;4.00;4.00;;;;;39.77;26.20;98750.31;6160790;28;97504;-67
2023/10/23 11:24:26;;;;;;;;;3.50;3.00;;;;;40.07;25.59;98756.00;6150256;28;98608;-69
2023/10/23 11:27:31;;;;;;;;;4.00;4.00;;;;;39.98;25.93;98747.22;6163540;28;96855;-69
2023/10/23 11:30:45;;;;;;;;;4.40;4.40;;;;;39.99;25.21;98740.38;6137144;28;98726;-69
2023/10/23 11:33:52;;;;;;;;;5.00;5.00;;;;;39.58;25.13;98746.06;6150341;28;96536;-66
2023/10/23 11:36:55;;;;;;;;;3.00;3.00;;;;;39.49;25.50;98742.13;6172440;28;96410;-63
2023/10/23 11:40:05;;;;;;;;;4.00;4.00;;;;;39.64;25.11;98746.38;6172472;28;96974;-62
2023/10/23 11:43:11;;;;;;;;;5.00;5.00;;;;;39.40;25.23;98748.25;6187674;28;96698;-65
2023/10/23 11:46:15;;;;;;;;;3.00;3.00;;;;;39.56;26.22;98745.66;6195172;28;96823;-65
2023/10/23 11:49:22;;;;;;;;;4.00;3.00;;;;;39.62;25.72;98748.84;6196032;28;96661;-65
2023/10/23 11:52:25;;;;;;;;;3.80;3.00;;;;;39.68;26.68;98750.78;6187480;28;96244;-65
2023/10/23 11:55:29;;;;;;;;;3.80;3.80;;;;;39.60;24.13;98748.44;6171159;28;96918;-65
2023/10/23 11:58:34;;;;;;;;;3.60;3.00;;;;;39.56;25.16;98759.78;6163306;28;96447;-65
2023/10/23 12:01:37;;;;;;;;;3.00;2.00;;;;;39.07;25.36;98757.38;6188455;28;96700;-64
2023/10/23 12:04:41;;;;;;;;;3.40;3.40;;;;;38.86;26.07;98752.69;6188871;28;96464;-64
2023/10/23 12:07:47;;;;;;;;;2.00;1.33;;;;;38.33;25.84;98748.16;6190280;28;96788;-65
2023/10/23 12:10:50;;;;;;;;;2.00;2.00;;;;;37.82;27.31;98740.31;6190283;28;96709;-64
2023/10/23 12:13:56;;;;;;;;;2.00;2.00;;;;;37.34;29.10;98742.00;6205082;28;97294;-64
2023/10/23 12:17:00;;;;;;;;;3.60;3.00;;;;;35.89;29.41;98746.06;6168944;28;96662;-64
2023/10/23 12:20:07;;;;;;;;;2.00;1.00;;;;;34.60;33.13;98734.19;6177409;28;98437;-66
2023/10/23 12:23:10;;;;;;;;;2.60;2.60;;;;;33.96;34.47;98732.66;6187011;28;96807;-64
2023/10/23 12:26:13;;;;;;;;;2.00;2.00;;;;;33.48;37.48;98734.34;6182426;28;96377;-63
2023/10/23 12:29:19;;;;;;;;;2.00;2.00;;;;;33.21;38.67;98727.16;6183776;28;98790;-63
2023/10/23 12:32:22;;;;;;;;;2.00;2.00;;;;;32.94;37.69;98718.72;6191272;28;96832;-65
2023/10/23 12:35:45;;;;;;;;;3.00;3.00;;;;;31.96;42.28;98729.56;6169944;28;96673;-65
2023/10/23 12:38:49;;;;;;;;;3.00;1.00;;;;;31.75;47.10;98729.97;6192425;28;97787;-64
2023/10/23 12:41:52;;;;;;;;;3.00;3.00;;;;;31.72;47.33;98730.66;6176828;28;98402;-64
2023/10/23 12:44:57;;;;;;;;;2.00;2.00;;;;;31.55;44.25;98714.34;6192473;28;97154;-66
2023/10/23 12:48:00;;;;;;;;;4.00;3.00;;;;;31.44;46.60;98721.66;6163894;28;96899;-66
2023/10/23 12:51:03;;;;;;;;;3.00;3.00;;;;;31.48;45.88;98728.09;6161911;28;97228;-66
2023/10/23 12:54:09;;;;;;;;;3.00;3.00;;;;;31.47;44.62;98717.34;6163172;28;96279;-66
2023/10/23 12:57:12;;;;;;;;;2.00;2.00;;;;;31.30;46.44;98722.13;6161314;28;96427;-66
2023/10/23 13:00:17;;;;;;;;;1.80;1.80;;;;;31.18;44.63;98710.31;6156232;28;96874;-66
2023/10/23 13:03:20;;;;;;;;;2.20;2.00;;;;;31.01;41.76;98710.66;6164468;28;96295;-66
2023/10/23 13:06:23;;;;;;;;;2.00;2.00;;;;;30.53;43.43;98705.09;6158628;28;96322;-66
2023/10/23 13:09:27;;;;;;;;;3.00;3.00;;;;;30.11;45.02;98690.00;6163755;28;96343;-66
2023/10/23 13:12:30;;;;;;;;;2.00;2.00;;;;;29.78;48.62;98697.75;6164506;28;96423;-66
2023/10/23 13:15:34;;;;;;;;;2.00;2.00;;;;;29.20;52.47;98694.41;6167745;28;96546;-66
2023/10/23 13:18:38;;;;;;;;;2.40;2.40;;;;;28.69;55.53;98691.13;6167123;28;96392;-67
2023/10/23 13:21:55;;;;;;;;;2.00;2.00;;;;;28.43;61.20;98683.16;6165656;28;96678;-66
2023/10/23 13:24:59;;;;;;;;;2.60;2.00;;;;;28.38;58.81;98686.16;6165631;28;96314;-66
2023/10/23 13:28:04;;;;;;;;;1.60;1.00;;;;;27.96;61.35;98684.59;6165750;28;96823;-66
2023/10/23 13:31:09;;;;;;;;;2.00;2.00;;;;;27.72;60.49;98684.50;6168338;28;96754;-65
2023/10/23 13:34:12;;;;;;;;;3.00;3.00;;;;;27.62;63.85;98684.91;6178677;28;96990;-65
2023/10/23 13:37:15;;;;;;;;;2.00;2.00;;;;;27.56;66.01;98687.88;6165858;28;96918;-65
2023/10/23 13:40:18;;;;;;;;;2.00;2.00;;;;;27.21;65.54;98686.50;6148652;28;97290;-65
2023/10/23 13:43:22;;;;;;;;;4.00;3.00;;;;;26.89;66.63;98684.38;6165923;28;96535;-65
2023/10/23 13:46:27;;;;;;;;;3.00;2.80;;;;;26.68;69.74;98681.56;6183467;28;98368;-65
2023/10/23 13:49:30;;;;;;;;;3.00;3.00;;;;;26.56;73.71;98676.72;6167656;28;96918;-65
2023/10/23 13:52:33;;;;;;;;;4.00;3.00;;;;;26.48;74.79;98679.53;6167332;28;96335;-65
2023/10/23 13:55:36;;;;;;;;;3.00;3.00;;;;;26.34;77.71;98673.41;6173918;28;96338;-62
2023/10/23 13:58:39;;;;;;;;;2.00;2.00;;;;;26.28;76.90;98676.34;6175650;28;98495;-62
2023/10/23 14:01:44;;;;;;;;;4.00;4.00;;;;;26.13;78.27;98667.72;6192032;28;96265;-62
2023/10/23 14:04:49;;;;;;;;;4.00;3.00;;;;;26.01;80.81;98665.63;6195252;28;96235;-64
2023/10/23 14:07:52;;;;;;;;;3.00;2.00;;;;;25.90;79.87;98667.13;6182869;28;96669;-63
2023/10/23 14:10:55;;;;;;;;;2.00;2.00;;;;;25.79;80.36;98657.56;6199902;28;96359;-62
2023/10/23 14:14:18;;;;;;;;;3.60;3.00;;;;;25.60;82.13;98660.66;6218419;28;96198;-62
2023/10/23 14:17:23;;;;;;;;;1.00;1.00;;;;;25.39;87.27;98667.94;6217103;28;97060;-62
2023/10/23 14:20:26;;;;;;;;;2.60;2.60;;;;;25.21;85.23;98672.63;6194508;28;96817;-62